createdAt,value
2022-12-13T00:02:01.014Z,16.40
2022-12-13T00:07:49.120Z,17.00
2022-12-13T00:13:23.502Z,16.53
2022-12-13T00:19:16.962Z,15.27
2022-12-13T00:22:04.995Z,15.70
2022-12-13T00:27:44.313Z,16.33
2022-12-13T00:33:16.170Z,16.27
2022-12-13T00:38:51.694Z,16.43
2022-12-13T00:41:43.625Z,15.77
2022-12-13T00:44:32.082Z,15.13
2022-12-13T00:50:12.990Z,15.20
2022-12-13T00:55:46.265Z,16.27
2022-12-13T01:01:24.836Z,15.67
2022-12-13T01:04:13.527Z,15.93
2022-12-13T01:07:02.170Z,15.27
2022-12-13T01:12:32.355Z,15.90
2022-12-13T01:18:10.559Z,15.93
2022-12-13T01:23:57.164Z,15.23
2022-12-13T01:29:27.015Z,15.97
2022-12-13T01:35:04.336Z,15.40
2022-12-13T01:40:38.528Z,14.33
2022-12-13T01:46:06.643Z,15.00
2022-12-13T01:51:40.509Z,16.00
2022-12-13T01:57:20.660Z,14.33
2022-12-13T02:00:14.176Z,14.67
2022-12-13T02:05:49.204Z,14.97
2022-12-13T02:14:09.831Z,14.47
2022-12-13T02:20:21.736Z,14.33
2022-12-13T02:23:20.895Z,13.43
2022-12-13T02:26:27.542Z,13.37
2022-12-13T02:32:13.791Z,14.23
2022-12-13T02:35:06.640Z,14.30
2022-12-13T02:40:37.469Z,13.50
2022-12-13T02:46:12.314Z,12.73
2022-12-13T02:51:42.908Z,13.87
2022-12-13T02:54:31.861Z,14.30
2022-12-13T03:00:22.038Z,13.93
2022-12-13T03:03:18.809Z,13.20
2022-12-13T03:06:34.157Z,13.07
2022-12-13T03:12:42.518Z,12.87
2022-12-13T03:18:21.126Z,13.40
2022-12-13T03:23:54.242Z,12.17
2022-12-13T03:26:43.031Z,13.53
2022-12-13T03:32:31.166Z,12.40
2022-12-13T03:40:58.882Z,13.57
2022-12-13T03:46:33.125Z,12.47
2022-12-13T03:52:02.337Z,12.27
2022-12-13T03:57:36.046Z,12.17
2022-12-13T04:03:13.314Z,11.90
2022-12-13T04:08:54.103Z,12.23
2022-12-13T04:14:23.198Z,13.00
2022-12-13T04:17:12.628Z,11.93
2022-12-13T04:22:42.113Z,12.27
2022-12-13T04:28:25.210Z,11.90
2022-12-13T04:33:58.149Z,12.23
2022-12-13T04:39:33.912Z,11.60
2022-12-13T04:45:03.719Z,11.40
2022-12-13T04:50:38.217Z,12.00
2022-12-13T04:59:14.028Z,11.53
2022-12-13T05:04:40.832Z,11.77
2022-12-13T05:10:32.123Z,11.67
2022-12-13T05:18:51.293Z,11.23
2022-12-13T05:24:31.459Z,11.03
2022-12-13T05:27:24.908Z,10.27
2022-12-13T05:33:01.815Z,10.50
2022-12-13T05:35:52.894Z,10.67
2022-12-13T05:41:33.311Z,11.33
2022-12-13T05:47:02.973Z,10.07
2022-12-13T05:52:38.016Z,10.83
2022-12-13T05:58:13.283Z,11.47
2022-12-13T06:03:48.070Z,11.03
2022-12-13T06:09:25.140Z,11.00
2022-12-13T06:15:01.694Z,10.93
2022-12-13T06:17:50.523Z,10.70
2022-12-13T06:23:24.430Z,9.97
2022-12-13T06:28:54.327Z,11.07
2022-12-13T06:34:26.366Z,10.70
2022-12-13T06:40:01.051Z,10.97
2022-12-13T06:45:31.675Z,10.57
2022-12-13T06:51:03.318Z,10.27
2022-12-13T06:56:38.774Z,10.43
2022-12-13T06:59:27.236Z,10.17
2022-12-13T07:04:58.815Z,10.37
2022-12-13T07:07:47.651Z,10.70
2022-12-13T07:13:26.976Z,10.90
2022-12-13T07:19:00.746Z,10.13
2022-12-13T07:24:29.697Z,10.40
2022-12-13T07:30:15.049Z,11.30
2022-12-13T07:35:55.707Z,10.73
2022-12-13T07:41:32.644Z,10.37
2022-12-13T07:47:06.930Z,11.07
2022-12-13T07:52:36.679Z,9.77
2022-12-13T07:55:33.605Z,9.93
2022-12-13T08:01:00.646Z,10.27
2022-12-13T08:06:28.970Z,10.43
2022-12-13T08:12:08.606Z,9.13
2022-12-13T08:17:42.989Z,9.70
2022-12-13T08:26:02.556Z,10.50
2022-12-13T08:31:38.949Z,9.03
2022-12-13T08:34:27.256Z,10.27
2022-12-13T08:40:05.574Z,9.37
2022-12-13T08:51:24.636Z,9.50
2022-12-13T08:56:54.281Z,9.17
2022-12-13T08:59:42.436Z,9.23
2022-12-13T09:05:34.061Z,9.53
2022-12-13T09:11:00.678Z,9.43
2022-12-13T09:16:35.916Z,9.23
2022-12-13T09:22:33.168Z,9.40
2022-12-13T09:25:24.282Z,8.80
2022-12-13T09:30:49.773Z,10.33
2022-12-13T09:36:21.808Z,9.70
2022-12-13T09:44:43.774Z,9.57
2022-12-13T09:50:15.045Z,10.73
2022-12-13T10:01:22.543Z,10.00
2022-12-13T10:07:03.584Z,9.53
2022-12-13T10:12:44.586Z,9.93
2022-12-13T10:18:16.111Z,11.07
2022-12-13T10:24:23.159Z,9.47
2022-12-13T10:29:22.443Z,10.50
2022-12-13T10:32:14.949Z,9.43
2022-12-13T10:38:31.572Z,10.63
2022-12-13T10:54:48.342Z,10.00
2022-12-13T11:00:44.488Z,10.03
2022-12-13T11:09:02.927Z,9.60
2022-12-13T11:17:24.406Z,10.47
2022-12-13T11:23:04.942Z,10.50
2022-12-13T11:31:24.898Z,10.03
2022-12-13T11:40:01.653Z,9.60
2022-12-13T11:45:32.460Z,10.03
2022-12-13T11:51:13.212Z,9.80
2022-12-13T11:54:04.514Z,9.30
2022-12-13T11:57:00.717Z,10.50
2022-12-13T12:05:31.764Z,9.10
2022-12-13T12:11:13.433Z,10.30
2022-12-13T12:16:48.288Z,10.60
2022-12-13T12:22:24.220Z,10.43
2022-12-13T12:28:13.291Z,9.97
2022-12-13T12:33:52.315Z,9.47
2022-12-13T13:13:12.594Z,10.67
2022-12-13T13:15:59.318Z,9.33
2022-12-13T13:36:52.692Z,10.57
2022-12-13T13:43:21.502Z,9.17
2022-12-13T13:46:13.774Z,9.53
2022-12-13T13:52:24.456Z,9.53
2022-12-13T13:55:37.378Z,9.63
2022-12-13T14:05:23.598Z,10.23
2022-12-13T14:33:31.981Z,10.13
2022-12-13T14:39:24.746Z,10.67
2022-12-13T14:45:22.124Z,10.63
2022-12-13T14:48:28.474Z,10.73
2022-12-13T14:59:18.788Z,11.20
2022-12-13T15:07:49.274Z,11.23
2022-12-13T15:10:40.695Z,11.10
2022-12-13T15:16:11.895Z,10.73
2022-12-13T15:22:01.717Z,11.37
2022-12-13T15:27:34.626Z,11.17
2022-12-13T15:39:02.912Z,10.90
2022-12-13T15:44:40.533Z,10.67
2022-12-13T15:50:36.163Z,11.10
2022-12-13T15:59:29.248Z,10.37
2022-12-13T16:05:09.394Z,11.37
2022-12-13T16:10:49.733Z,10.23
2022-12-13T16:16:28.326Z,10.87
2022-12-13T16:27:32.719Z,10.60
2022-12-13T16:33:28.638Z,10.83
2022-12-13T16:36:16.951Z,12.03
2022-12-13T16:41:54.528Z,12.47
2022-12-13T16:44:43.266Z,11.10
2022-12-13T16:47:41.859Z,11.00
2022-12-13T16:50:43.046Z,11.27
2022-12-13T16:53:31.589Z,11.10
2022-12-13T16:59:10.454Z,11.10
2022-12-13T17:04:50.396Z,11.07
2022-12-13T17:07:38.822Z,10.80
2022-12-13T17:13:10.841Z,11.47
2022-12-13T17:18:51.880Z,10.50
2022-12-13T17:24:26.287Z,11.17
2022-12-13T17:27:14.543Z,11.27
2022-12-13T17:30:08.256Z,11.17
2022-12-13T17:35:51.591Z,11.00
2022-12-13T17:42:30.035Z,11.23
2022-12-13T17:48:01.287Z,10.77
2022-12-13T17:56:39.440Z,11.70
2022-12-13T17:59:28.163Z,11.60
2022-12-13T18:05:17.721Z,12.00
2022-12-13T18:13:34.233Z,12.63
2022-12-13T18:19:09.860Z,11.47
2022-12-13T18:27:38.107Z,13.20
2022-12-13T18:30:28.006Z,11.87
2022-12-13T18:33:17.008Z,12.27
2022-12-13T18:38:55.403Z,12.03
2022-12-13T18:44:32.376Z,11.87
2022-12-13T18:50:04.537Z,11.83
2022-12-13T18:52:52.986Z,12.27
2022-12-13T18:58:27.455Z,12.73
2022-12-13T19:04:03.178Z,12.40
2022-12-13T19:06:52.950Z,13.37
2022-12-13T19:12:31.844Z,12.43
2022-12-13T19:18:11.305Z,11.63
2022-12-13T19:23:42.497Z,12.17
2022-12-13T19:29:25.982Z,13.03
2022-12-13T19:35:21.911Z,12.63
2022-12-13T19:38:24.748Z,12.67
2022-12-13T19:41:14.795Z,12.53
2022-12-13T19:44:05.085Z,12.03
2022-12-13T19:53:00.317Z,13.00
2022-12-13T19:58:59.301Z,12.60
2022-12-13T20:07:23.793Z,13.00
2022-12-13T20:10:12.793Z,12.73
2022-12-13T20:15:51.751Z,13.07
2022-12-13T20:22:30.017Z,13.70
2022-12-13T20:30:50.343Z,15.30
2022-12-13T20:36:27.093Z,13.90
2022-12-13T20:39:15.669Z,13.40
2022-12-13T20:44:45.749Z,14.33
2022-12-13T20:47:38.029Z,13.93
2022-12-13T20:56:02.023Z,15.17
2022-12-13T20:58:52.708Z,14.53
2022-12-13T21:04:23.561Z,14.47
2022-12-13T21:10:01.946Z,14.17
2022-12-13T21:15:39.525Z,15.13
2022-12-13T21:18:29.388Z,14.27
2022-12-13T21:21:18.758Z,14.97
2022-12-13T21:24:08.206Z,14.33
2022-12-13T21:29:41.457Z,14.23
2022-12-13T21:35:43.975Z,14.83
2022-12-13T21:38:32.703Z,15.00
2022-12-13T21:52:34.456Z,16.70
2022-12-13T21:58:33.280Z,16.33
2022-12-13T22:04:12.022Z,16.40
2022-12-13T22:12:43.778Z,16.37
2022-12-13T22:18:21.143Z,15.77
2022-12-13T22:21:09.269Z,16.80
2022-12-13T22:23:58.356Z,16.80
2022-12-13T22:29:35.742Z,16.70
2022-12-13T22:35:08.487Z,16.63
2022-12-13T22:38:01.379Z,17.03
2022-12-13T22:43:37.346Z,16.80
2022-12-13T22:49:13.660Z,16.63
2022-12-13T22:54:49.777Z,16.97
2022-12-13T23:00:17.080Z,17.17
2022-12-13T23:06:08.944Z,17.27
2022-12-13T23:12:00.939Z,18.07
2022-12-13T23:17:33.363Z,17.27
2022-12-13T23:23:21.437Z,16.87
2022-12-13T23:26:14.402Z,16.47
2022-12-13T23:31:48.963Z,16.70
2022-12-13T23:34:35.883Z,16.40
2022-12-13T23:40:13.609Z,18.03
2022-12-13T23:45:45.184Z,17.00
2022-12-13T23:51:18.627Z,16.73
2022-12-13T23:56:54.059Z,16.30
